sensor_id;sensor_type;location;lat;lon;timestamp;P1;durP1;ratioP1;P2;durP2;ratioP2
60076;SDS011;45950;45.208;20.374;2023-04-19T00:01:47;33.83;;;24.95;;
60076;SDS011;45950;45.208;20.374;2023-04-19T00:04:19;33.92;;;23.25;;
60076;SDS011;45950;45.208;20.374;2023-04-19T00:06:45;34.53;;;26.95;;
60076;SDS011;45950;45.208;20.374;2023-04-19T00:09:12;35.08;;;25.98;;
60076;SDS011;45950;45.208;20.374;2023-04-19T00:11:39;32.88;;;24.70;;
60076;SDS011;45950;45.208;20.374;2023-04-19T00:14:06;32.65;;;23.27;;
60076;SDS011;45950;45.208;20.374;2023-04-19T00:16:32;38.25;;;25.25;;
60076;SDS011;45950;45.208;20.374;2023-04-19T00:18:59;39.42;;;28.23;;
60076;SDS011;45950;45.208;20.374;2023-04-19T00:21:27;34.90;;;25.88;;
60076;SDS011;45950;45.208;20.374;2023-04-19T00:23:55;36.75;;;25.17;;
60076;SDS011;45950;45.208;20.374;2023-04-19T00:26:22;37.95;;;26.35;;
60076;SDS011;45950;45.208;20.374;2023-04-19T00:28:48;38.17;;;26.67;;
60076;SDS011;45950;45.208;20.374;2023-04-19T00:31:15;35.15;;;25.92;;
60076;SDS011;45950;45.208;20.374;2023-04-19T00:33:41;41.70;;;28.70;;
60076;SDS011;45950;45.208;20.374;2023-04-19T00:36:08;31.77;;;22.70;;
60076;SDS011;45950;45.208;20.374;2023-04-19T00:38:36;34.70;;;25.15;;
60076;SDS011;45950;45.208;20.374;2023-04-19T00:41:03;40.20;;;27.55;;
60076;SDS011;45950;45.208;20.374;2023-04-19T00:43:35;39.80;;;26.15;;
60076;SDS011;45950;45.208;20.374;2023-04-19T00:46:02;26.67;;;19.55;;
60076;SDS011;45950;45.208;20.374;2023-04-19T00:48:29;31.42;;;22.00;;
60076;SDS011;45950;45.208;20.374;2023-04-19T00:50:56;27.50;;;20.83;;
60076;SDS011;45950;45.208;20.374;2023-04-19T00:53:22;34.45;;;24.27;;
60076;SDS011;45950;45.208;20.374;2023-04-19T00:55:50;31.77;;;25.02;;
60076;SDS011;45950;45.208;20.374;2023-04-19T00:58:17;34.95;;;25.02;;
60076;SDS011;45950;45.208;20.374;2023-04-19T01:00:44;32.80;;;25.10;;
60076;SDS011;45950;45.208;20.374;2023-04-19T01:03:10;26.85;;;20.00;;
60076;SDS011;45950;45.208;20.374;2023-04-19T01:05:54;26.92;;;18.27;;
60076;SDS011;45950;45.208;20.374;2023-04-19T01:08:20;27.08;;;20.98;;
60076;SDS011;45950;45.208;20.374;2023-04-19T01:10:47;29.08;;;21.17;;
60076;SDS011;45950;45.208;20.374;2023-04-19T01:13:15;25.42;;;19.85;;
60076;SDS011;45950;45.208;20.374;2023-04-19T01:15:42;26.38;;;21.45;;
60076;SDS011;45950;45.208;20.374;2023-04-19T01:21:07;30.52;;;23.52;;
60076;SDS011;45950;45.208;20.374;2023-04-19T01:23:35;28.48;;;22.15;;
60076;SDS011;45950;45.208;20.374;2023-04-19T01:26:03;31.90;;;21.27;;
60076;SDS011;45950;45.208;20.374;2023-04-19T01:28:29;30.10;;;21.73;;
60076;SDS011;45950;45.208;20.374;2023-04-19T01:30:56;22.00;;;16.25;;
60076;SDS011;45950;45.208;20.374;2023-04-19T01:33:23;22.92;;;15.93;;
60076;SDS011;45950;45.208;20.374;2023-04-19T01:35:49;20.27;;;16.10;;
60076;SDS011;45950;45.208;20.374;2023-04-19T01:38:16;17.42;;;13.70;;
60076;SDS011;45950;45.208;20.374;2023-04-19T01:40:44;18.92;;;13.23;;
60076;SDS011;45950;45.208;20.374;2023-04-19T01:43:11;21.48;;;13.68;;
60076;SDS011;45950;45.208;20.374;2023-04-19T01:45:38;16.83;;;11.63;;
60076;SDS011;45950;45.208;20.374;2023-04-19T01:48:04;16.80;;;12.82;;
60076;SDS011;45950;45.208;20.374;2023-04-19T01:50:31;14.68;;;10.73;;
60076;SDS011;45950;45.208;20.374;2023-04-19T01:52:58;15.95;;;12.23;;
60076;SDS011;45950;45.208;20.374;2023-04-19T01:55:25;15.57;;;11.63;;
60076;SDS011;45950;45.208;20.374;2023-04-19T01:57:53;14.63;;;9.73;;
60076;SDS011;45950;45.208;20.374;2023-04-19T02:00:20;14.98;;;11.15;;
60076;SDS011;45950;45.208;20.374;2023-04-19T02:02:46;18.83;;;13.57;;
60076;SDS011;45950;45.208;20.374;2023-04-19T02:05:13;15.52;;;12.82;;
60076;SDS011;45950;45.208;20.374;2023-04-19T02:07:40;17.27;;;12.82;;
60076;SDS011;45950;45.208;20.374;2023-04-19T02:10:08;12.60;;;9.02;;
60076;SDS011;45950;45.208;20.374;2023-04-19T02:12:35;14.70;;;12.90;;
60076;SDS011;45950;45.208;20.374;2023-04-19T02:15:03;15.45;;;12.45;;
60076;SDS011;45950;45.208;20.374;2023-04-19T02:17:30;13.30;;;10.80;;
60076;SDS011;45950;45.208;20.374;2023-04-19T02:19:56;12.63;;;9.75;;
60076;SDS011;45950;45.208;20.374;2023-04-19T02:22:23;15.18;;;11.02;;
60076;SDS011;45950;45.208;20.374;2023-04-19T02:24:50;17.30;;;12.27;;
60076;SDS011;45950;45.208;20.374;2023-04-19T02:27:16;12.85;;;9.90;;
60076;SDS011;45950;45.208;20.374;2023-04-19T02:29:43;18.05;;;12.52;;
60076;SDS011;45950;45.208;20.374;2023-04-19T02:32:27;15.45;;;11.70;;
60076;SDS011;45950;45.208;20.374;2023-04-19T02:34:53;12.85;;;10.57;;
60076;SDS011;45950;45.208;20.374;2023-04-19T02:37:20;14.48;;;9.48;;
60076;SDS011;45950;45.208;20.374;2023-04-19T02:39:50;15.25;;;11.20;;
60076;SDS011;45950;45.208;20.374;2023-04-19T02:42:16;11.18;;;8.27;;
60076;SDS011;45950;45.208;20.374;2023-04-19T02:44:43;11.73;;;8.13;;
60076;SDS011;45950;45.208;20.374;2023-04-19T02:47:09;18.10;;;11.70;;
60076;SDS011;45950;45.208;20.374;2023-04-19T02:52:33;11.90;;;9.43;;
60076;SDS011;45950;45.208;20.374;2023-04-19T02:54:59;13.85;;;10.73;;
60076;SDS011;45950;45.208;20.374;2023-04-19T02:57:31;16.63;;;9.15;;
60076;SDS011;45950;45.208;20.374;2023-04-19T02:59:57;11.02;;;8.32;;
60076;SDS011;45950;45.208;20.374;2023-04-19T03:02:24;12.32;;;7.85;;
60076;SDS011;45950;45.208;20.374;2023-04-19T03:04:50;11.18;;;7.38;;
60076;SDS011;45950;45.208;20.374;2023-04-19T03:07:18;10.07;;;6.82;;
60076;SDS011;45950;45.208;20.374;2023-04-19T03:09:46;12.52;;;8.27;;
60076;SDS011;45950;45.208;20.374;2023-04-19T03:12:12;10.60;;;6.75;;
60076;SDS011;45950;45.208;20.374;2023-04-19T03:14:39;9.10;;;6.15;;
60076;SDS011;45950;45.208;20.374;2023-04-19T03:17:07;12.90;;;7.10;;
60076;SDS011;45950;45.208;20.374;2023-04-19T03:19:34;9.63;;;6.88;;
60076;SDS011;45950;45.208;20.374;2023-04-19T03:22:01;12.00;;;6.35;;
60076;SDS011;45950;45.208;20.374;2023-04-19T03:24:28;12.02;;;7.82;;
60076;SDS011;45950;45.208;20.374;2023-04-19T03:26:57;11.65;;;6.53;;
60076;SDS011;45950;45.208;20.374;2023-04-19T03:29:24;12.30;;;6.80;;
60076;SDS011;45950;45.208;20.374;2023-04-19T03:31:50;9.15;;;6.47;;
60076;SDS011;45950;45.208;20.374;2023-04-19T03:34:17;10.82;;;7.47;;
60076;SDS011;45950;45.208;20.374;2023-04-19T03:36:43;26.67;;;19.48;;
60076;SDS011;45950;45.208;20.374;2023-04-19T03:39:10;25.38;;;19.45;;
60076;SDS011;45950;45.208;20.374;2023-04-19T03:41:38;13.70;;;10.05;;
60076;SDS011;45950;45.208;20.374;2023-04-19T03:44:06;12.55;;;8.95;;
60076;SDS011;45950;45.208;20.374;2023-04-19T03:46:33;13.25;;;9.50;;
60076;SDS011;45950;45.208;20.374;2023-04-19T03:49:06;11.68;;;8.00;;
60076;SDS011;45950;45.208;20.374;2023-04-19T03:51:32;14.10;;;9.10;;
60076;SDS011;45950;45.208;20.374;2023-04-19T03:54:06;12.63;;;8.63;;
60076;SDS011;45950;45.208;20.374;2023-04-19T03:56:33;10.70;;;7.25;;
60076;SDS011;45950;45.208;20.374;2023-04-19T03:58:59;11.88;;;7.43;;
60076;SDS011;45950;45.208;20.374;2023-04-19T04:01:31;18.33;;;13.40;;
60076;SDS011;45950;45.208;20.374;2023-04-19T04:03:58;16.63;;;10.30;;
60076;SDS011;45950;45.208;20.374;2023-04-19T04:06:24;15.68;;;10.48;;
60076;SDS011;45950;45.208;20.374;2023-04-19T04:08:52;41.80;;;22.80;;
60076;SDS011;45950;45.208;20.374;2023-04-19T04:11:18;44.70;;;26.88;;
60076;SDS011;45950;45.208;20.374;2023-04-19T04:13:45;47.20;;;30.85;;
60076;SDS011;45950;45.208;20.374;2023-04-19T04:16:13;57.58;;;39.30;;
60076;SDS011;45950;45.208;20.374;2023-04-19T04:18:41;29.25;;;20.67;;
60076;SDS011;45950;45.208;20.374;2023-04-19T04:21:08;39.42;;;25.85;;
60076;SDS011;45950;45.208;20.374;2023-04-19T04:23:34;26.25;;;16.52;;
60076;SDS011;45950;45.208;20.374;2023-04-19T04:26:02;20.92;;;15.30;;
60076;SDS011;45950;45.208;20.374;2023-04-19T04:28:30;16.65;;;10.40;;
60076;SDS011;45950;45.208;20.374;2023-04-19T04:30:57;10.23;;;7.43;;
60076;SDS011;45950;45.208;20.374;2023-04-19T04:33:24;11.20;;;7.88;;
60076;SDS011;45950;45.208;20.374;2023-04-19T04:35:53;9.05;;;6.75;;
60076;SDS011;45950;45.208;20.374;2023-04-19T04:38:20;11.50;;;7.53;;
60076;SDS011;45950;45.208;20.374;2023-04-19T04:40:48;11.25;;;6.68;;
60076;SDS011;45950;45.208;20.374;2023-04-19T04:43:14;10.93;;;6.82;;
60076;SDS011;45950;45.208;20.374;2023-04-19T04:45:41;11.23;;;6.65;;
60076;SDS011;45950;45.208;20.374;2023-04-19T04:48:08;12.65;;;8.43;;
60076;SDS011;45950;45.208;20.374;2023-04-19T04:50:35;10.13;;;6.70;;
60076;SDS011;45950;45.208;20.374;2023-04-19T04:53:03;10.43;;;6.65;;
60076;SDS011;45950;45.208;20.374;2023-04-19T04:55:29;11.52;;;8.55;;
60076;SDS011;45950;45.208;20.374;2023-04-19T04:57:56;12.07;;;8.52;;
60076;SDS011;45950;45.208;20.374;2023-04-19T05:00:22;13.30;;;9.40;;
60076;SDS011;45950;45.208;20.374;2023-04-19T05:02:49;13.60;;;8.45;;
60076;SDS011;45950;45.208;20.374;2023-04-19T05:05:16;11.27;;;7.85;;
60076;SDS011;45950;45.208;20.374;2023-04-19T05:07:42;13.63;;;10.90;;
60076;SDS011;45950;45.208;20.374;2023-04-19T05:10:10;19.55;;;14.40;;
60076;SDS011;45950;45.208;20.374;2023-04-19T05:12:37;15.23;;;10.57;;
60076;SDS011;45950;45.208;20.374;2023-04-19T05:15:06;11.68;;;7.53;;
60076;SDS011;45950;45.208;20.374;2023-04-19T05:17:33;10.77;;;7.00;;
60076;SDS011;45950;45.208;20.374;2023-04-19T05:20:00;11.88;;;7.43;;
60076;SDS011;45950;45.208;20.374;2023-04-19T05:22:26;9.80;;;6.57;;
60076;SDS011;45950;45.208;20.374;2023-04-19T05:24:53;11.88;;;6.45;;
60076;SDS011;45950;45.208;20.374;2023-04-19T05:27:21;9.20;;;6.93;;
60076;SDS011;45950;45.208;20.374;2023-04-19T05:29:48;8.00;;;5.60;;
60076;SDS011;45950;45.208;20.374;2023-04-19T05:32:15;10.45;;;6.13;;
60076;SDS011;45950;45.208;20.374;2023-04-19T05:34:42;8.48;;;5.85;;
60076;SDS011;45950;45.208;20.374;2023-04-19T05:37:08;11.43;;;7.90;;
60076;SDS011;45950;45.208;20.374;2023-04-19T05:39:35;9.77;;;6.68;;
60076;SDS011;45950;45.208;20.374;2023-04-19T05:42:12;13.55;;;8.93;;
60076;SDS011;45950;45.208;20.374;2023-04-19T05:44:40;14.35;;;9.10;;
60076;SDS011;45950;45.208;20.374;2023-04-19T05:47:07;24.63;;;16.92;;
60076;SDS011;45950;45.208;20.374;2023-04-19T05:49:34;16.63;;;12.10;;
60076;SDS011;45950;45.208;20.374;2023-04-19T05:52:00;14.30;;;10.82;;
60076;SDS011;45950;45.208;20.374;2023-04-19T05:54:27;12.98;;;7.97;;
60076;SDS011;45950;45.208;20.374;2023-04-19T05:56:58;12.27;;;8.05;;
60076;SDS011;45950;45.208;20.374;2023-04-19T05:59:25;10.32;;;7.50;;
60076;SDS011;45950;45.208;20.374;2023-04-19T06:01:53;13.45;;;8.63;;
60076;SDS011;45950;45.208;20.374;2023-04-19T06:04:20;10.02;;;6.88;;
60076;SDS011;45950;45.208;20.374;2023-04-19T06:06:52;12.25;;;9.05;;
60076;SDS011;45950;45.208;20.374;2023-04-19T06:09:19;13.48;;;7.07;;
60076;SDS011;45950;45.208;20.374;2023-04-19T06:11:48;10.98;;;7.43;;
60076;SDS011;45950;45.208;20.374;2023-04-19T06:14:14;9.45;;;7.20;;
60076;SDS011;45950;45.208;20.374;2023-04-19T06:16:41;12.57;;;7.68;;
60076;SDS011;45950;45.208;20.374;2023-04-19T06:19:09;10.38;;;7.80;;
60076;SDS011;45950;45.208;20.374;2023-04-19T06:21:36;10.20;;;6.35;;
60076;SDS011;45950;45.208;20.374;2023-04-19T06:24:02;11.52;;;7.25;;
60076;SDS011;45950;45.208;20.374;2023-04-19T06:26:35;12.98;;;6.60;;
60076;SDS011;45950;45.208;20.374;2023-04-19T06:29:02;12.07;;;7.85;;
60076;SDS011;45950;45.208;20.374;2023-04-19T06:31:29;11.75;;;7.97;;
60076;SDS011;45950;45.208;20.374;2023-04-19T06:34:01;14.73;;;8.20;;
60076;SDS011;45950;45.208;20.374;2023-04-19T06:36:29;12.70;;;7.75;;
60076;SDS011;45950;45.208;20.374;2023-04-19T06:38:56;10.13;;;7.47;;
60076;SDS011;45950;45.208;20.374;2023-04-19T06:41:22;9.73;;;7.68;;
60076;SDS011;45950;45.208;20.374;2023-04-19T06:43:49;13.10;;;7.70;;
60076;SDS011;45950;45.208;20.374;2023-04-19T06:46:15;14.25;;;7.72;;
60076;SDS011;45950;45.208;20.374;2023-04-19T06:48:42;12.00;;;7.90;;
60076;SDS011;45950;45.208;20.374;2023-04-19T06:51:09;19.85;;;13.77;;
60076;SDS011;45950;45.208;20.374;2023-04-19T06:53:36;23.50;;;14.40;;
60076;SDS011;45950;45.208;20.374;2023-04-19T06:56:03;27.10;;;17.73;;
60076;SDS011;45950;45.208;20.374;2023-04-19T06:58:30;48.58;;;28.48;;
60076;SDS011;45950;45.208;20.374;2023-04-19T07:00:57;18.85;;;13.10;;
60076;SDS011;45950;45.208;20.374;2023-04-19T07:03:24;12.32;;;9.10;;
60076;SDS011;45950;45.208;20.374;2023-04-19T07:05:51;10.05;;;6.93;;
60076;SDS011;45950;45.208;20.374;2023-04-19T07:08:20;15.13;;;9.93;;
60076;SDS011;45950;45.208;20.374;2023-04-19T07:10:48;27.70;;;16.88;;
60076;SDS011;45950;45.208;20.374;2023-04-19T07:13:14;9.90;;;7.35;;
60076;SDS011;45950;45.208;20.374;2023-04-19T07:15:41;10.38;;;7.43;;
60076;SDS011;45950;45.208;20.374;2023-04-19T07:18:08;10.98;;;7.85;;
60076;SDS011;45950;45.208;20.374;2023-04-19T07:20:35;8.32;;;6.55;;
60076;SDS011;45950;45.208;20.374;2023-04-19T07:23:01;13.32;;;6.97;;
60076;SDS011;45950;45.208;20.374;2023-04-19T07:25:28;10.10;;;7.45;;
60076;SDS011;45950;45.208;20.374;2023-04-19T07:27:56;12.63;;;7.82;;
60076;SDS011;45950;45.208;20.374;2023-04-19T07:30:22;8.80;;;6.30;;
60076;SDS011;45950;45.208;20.374;2023-04-19T07:32:49;10.85;;;7.78;;
60076;SDS011;45950;45.208;20.374;2023-04-19T07:35:17;11.02;;;6.68;;
60076;SDS011;45950;45.208;20.374;2023-04-19T07:37:44;11.05;;;7.60;;
60076;SDS011;45950;45.208;20.374;2023-04-19T07:40:11;9.88;;;5.78;;
60076;SDS011;45950;45.208;20.374;2023-04-19T07:42:38;11.32;;;7.15;;
60076;SDS011;45950;45.208;20.374;2023-04-19T07:45:06;17.05;;;9.57;;
60076;SDS011;45950;45.208;20.374;2023-04-19T07:47:33;12.77;;;8.20;;
60076;SDS011;45950;45.208;20.374;2023-04-19T07:49:59;11.00;;;7.32;;
60076;SDS011;45950;45.208;20.374;2023-04-19T07:52:26;9.20;;;6.25;;
60076;SDS011;45950;45.208;20.374;2023-04-19T07:54:52;22.45;;;15.80;;
60076;SDS011;45950;45.208;20.374;2023-04-19T07:57:19;10.70;;;6.80;;
60076;SDS011;45950;45.208;20.374;2023-04-19T07:59:46;12.07;;;7.15;;
60076;SDS011;45950;45.208;20.374;2023-04-19T08:02:14;7.68;;;5.53;;
60076;SDS011;45950;45.208;20.374;2023-04-19T08:04:43;8.90;;;6.30;;
60076;SDS011;45950;45.208;20.374;2023-04-19T08:07:12;13.45;;;7.07;;
60076;SDS011;45950;45.208;20.374;2023-04-19T08:09:40;13.27;;;7.93;;
60076;SDS011;45950;45.208;20.374;2023-04-19T08:12:06;10.55;;;8.05;;
60076;SDS011;45950;45.208;20.374;2023-04-19T08:14:33;11.80;;;7.90;;
60076;SDS011;45950;45.208;20.374;2023-04-19T08:17:00;21.05;;;9.80;;
60076;SDS011;45950;45.208;20.374;2023-04-19T08:19:30;18.05;;;10.35;;
60076;SDS011;45950;45.208;20.374;2023-04-19T08:21:56;11.18;;;7.28;;
60076;SDS011;45950;45.208;20.374;2023-04-19T08:24:23;11.90;;;7.38;;
60076;SDS011;45950;45.208;20.374;2023-04-19T08:26:49;15.25;;;9.38;;
60076;SDS011;45950;45.208;20.374;2023-04-19T08:29:18;12.48;;;7.90;;
60076;SDS011;45950;45.208;20.374;2023-04-19T08:31:46;19.38;;;12.15;;
60076;SDS011;45950;45.208;20.374;2023-04-19T08:34:13;12.27;;;8.57;;
60076;SDS011;45950;45.208;20.374;2023-04-19T08:36:41;13.10;;;9.48;;
60076;SDS011;45950;45.208;20.374;2023-04-19T08:39:07;12.02;;;8.43;;
60076;SDS011;45950;45.208;20.374;2023-04-19T08:41:36;14.85;;;8.55;;
60076;SDS011;45950;45.208;20.374;2023-04-19T08:44:03;17.38;;;8.75;;
60076;SDS011;45950;45.208;20.374;2023-04-19T08:46:31;11.27;;;8.30;;
60076;SDS011;45950;45.208;20.374;2023-04-19T08:48:58;12.68;;;8.65;;
60076;SDS011;45950;45.208;20.374;2023-04-19T08:51:25;16.85;;;10.30;;
60076;SDS011;45950;45.208;20.374;2023-04-19T08:53:53;15.48;;;10.32;;
60076;SDS011;45950;45.208;20.374;2023-04-19T08:56:21;27.95;;;16.80;;
60076;SDS011;45950;45.208;20.374;2023-04-19T08:58:48;22.92;;;13.27;;
60076;SDS011;45950;45.208;20.374;2023-04-19T09:01:14;42.05;;;23.75;;
60076;SDS011;45950;45.208;20.374;2023-04-19T09:03:41;22.95;;;13.15;;
60076;SDS011;45950;45.208;20.374;2023-04-19T09:06:08;12.48;;;9.82;;
60076;SDS011;45950;45.208;20.374;2023-04-19T09:08:36;10.65;;;7.63;;
60076;SDS011;45950;45.208;20.374;2023-04-19T09:11:04;18.90;;;14.43;;
60076;SDS011;45950;45.208;20.374;2023-04-19T09:13:31;18.45;;;13.68;;
60076;SDS011;45950;45.208;20.374;2023-04-19T09:16:00;22.15;;;15.95;;
60076;SDS011;45950;45.208;20.374;2023-04-19T09:18:29;24.13;;;12.48;;
60076;SDS011;45950;45.208;20.374;2023-04-19T09:20:55;17.05;;;10.77;;
60076;SDS011;45950;45.208;20.374;2023-04-19T09:23:22;12.55;;;9.27;;
60076;SDS011;45950;45.208;20.374;2023-04-19T09:25:51;15.77;;;11.15;;
60076;SDS011;45950;45.208;20.374;2023-04-19T09:28:19;16.08;;;9.20;;
60076;SDS011;45950;45.208;20.374;2023-04-19T09:30:45;11.50;;;7.70;;
60076;SDS011;45950;45.208;20.374;2023-04-19T09:33:17;11.23;;;7.60;;
60076;SDS011;45950;45.208;20.374;2023-04-19T09:35:57;8.45;;;5.82;;
60076;SDS011;45950;45.208;20.374;2023-04-19T09:38:23;8.07;;;5.60;;
60076;SDS011;45950;45.208;20.374;2023-04-19T09:40:50;11.18;;;6.88;;
60076;SDS011;45950;45.208;20.374;2023-04-19T09:43:23;7.15;;;4.40;;
60076;SDS011;45950;45.208;20.374;2023-04-19T09:45:50;6.50;;;4.22;;
60076;SDS011;45950;45.208;20.374;2023-04-19T09:48:16;6.10;;;3.88;;
60076;SDS011;45950;45.208;20.374;2023-04-19T09:50:50;6.50;;;3.53;;
60076;SDS011;45950;45.208;20.374;2023-04-19T09:53:16;7.38;;;3.35;;
60076;SDS011;45950;45.208;20.374;2023-04-19T09:55:43;11.60;;;3.70;;
60076;SDS011;45950;45.208;20.374;2023-04-19T09:58:11;8.02;;;4.50;;
60076;SDS011;45950;45.208;20.374;2023-04-19T10:00:39;7.82;;;5.15;;
60076;SDS011;45950;45.208;20.374;2023-04-19T10:03:06;6.13;;;4.10;;
60076;SDS011;45950;45.208;20.374;2023-04-19T10:05:35;10.65;;;5.70;;
60076;SDS011;45950;45.208;20.374;2023-04-19T10:08:02;11.23;;;5.53;;
60076;SDS011;45950;45.208;20.374;2023-04-19T10:10:29;22.35;;;12.07;;
60076;SDS011;45950;45.208;20.374;2023-04-19T10:12:57;9.73;;;6.03;;
60076;SDS011;45950;45.208;20.374;2023-04-19T10:15:24;34.55;;;18.05;;
60076;SDS011;45950;45.208;20.374;2023-04-19T10:17:52;21.23;;;12.35;;
60076;SDS011;45950;45.208;20.374;2023-04-19T10:20:20;15.68;;;9.00;;
60076;SDS011;45950;45.208;20.374;2023-04-19T10:22:48;25.35;;;12.93;;
60076;SDS011;45950;45.208;20.374;2023-04-19T10:25:15;58.42;;;26.23;;
60076;SDS011;45950;45.208;20.374;2023-04-19T10:27:42;11.85;;;7.50;;
60076;SDS011;45950;45.208;20.374;2023-04-19T10:30:19;17.27;;;10.73;;
60076;SDS011;45950;45.208;20.374;2023-04-19T10:32:50;17.85;;;8.70;;
60076;SDS011;45950;45.208;20.374;2023-04-19T10:35:19;6.82;;;4.00;;
60076;SDS011;45950;45.208;20.374;2023-04-19T10:38:02;5.25;;;3.30;;
60076;SDS011;45950;45.208;20.374;2023-04-19T10:43:24;4.03;;;2.50;;
60076;SDS011;45950;45.208;20.374;2023-04-19T10:45:51;8.65;;;3.05;;
60076;SDS011;45950;45.208;20.374;2023-04-19T10:48:33;4.03;;;3.13;;
60076;SDS011;45950;45.208;20.374;2023-04-19T10:51:04;6.15;;;2.50;;
60076;SDS011;45950;45.208;20.374;2023-04-19T10:53:53;4.55;;;2.85;;
60076;SDS011;45950;45.208;20.374;2023-04-19T10:56:20;5.57;;;3.17;;
60076;SDS011;45950;45.208;20.374;2023-04-19T11:01:34;6.35;;;4.30;;
60076;SDS011;45950;45.208;20.374;2023-04-19T11:04:03;6.47;;;3.67;;
60076;SDS011;45950;45.208;20.374;2023-04-19T11:06:35;26.55;;;4.78;;
60076;SDS011;45950;45.208;20.374;2023-04-19T11:09:02;6.25;;;3.88;;
60076;SDS011;45950;45.208;20.374;2023-04-19T11:11:32;10.32;;;3.72;;
60076;SDS011;45950;45.208;20.374;2023-04-19T11:13:58;9.88;;;4.95;;
60076;SDS011;45950;45.208;20.374;2023-04-19T11:16:27;13.05;;;7.00;;
60076;SDS011;45950;45.208;20.374;2023-04-19T11:18:54;13.65;;;4.78;;
60076;SDS011;45950;45.208;20.374;2023-04-19T11:21:20;5.00;;;3.72;;
60076;SDS011;45950;45.208;20.374;2023-04-19T11:23:49;5.68;;;3.85;;
60076;SDS011;45950;45.208;20.374;2023-04-19T11:26:30;8.98;;;4.95;;
60076;SDS011;45950;45.208;20.374;2023-04-19T11:28:57;6.07;;;4.55;;
60076;SDS011;45950;45.208;20.374;2023-04-19T11:31:26;4.63;;;3.00;;
60076;SDS011;45950;45.208;20.374;2023-04-19T11:33:53;7.90;;;3.95;;
60076;SDS011;45950;45.208;20.374;2023-04-19T11:36:20;7.35;;;3.30;;
60076;SDS011;45950;45.208;20.374;2023-04-19T11:38:46;7.30;;;3.65;;
60076;SDS011;45950;45.208;20.374;2023-04-19T11:41:17;5.70;;;3.45;;
60076;SDS011;45950;45.208;20.374;2023-04-19T11:43:44;6.28;;;3.90;;
60076;SDS011;45950;45.208;20.374;2023-04-19T11:46:11;4.65;;;2.50;;
60076;SDS011;45950;45.208;20.374;2023-04-19T11:48:38;3.42;;;2.50;;
60076;SDS011;45950;45.208;20.374;2023-04-19T11:51:15;5.75;;;3.00;;
60076;SDS011;45950;45.208;20.374;2023-04-19T11:53:42;5.30;;;3.05;;
60076;SDS011;45950;45.208;20.374;2023-04-19T11:56:08;6.38;;;3.88;;
60076;SDS011;45950;45.208;20.374;2023-04-19T11:58:37;7.28;;;3.92;;
60076;SDS011;45950;45.208;20.374;2023-04-19T12:01:05;5.72;;;3.67;;
60076;SDS011;45950;45.208;20.374;2023-04-19T12:03:31;8.57;;;4.95;;
60076;SDS011;45950;45.208;20.374;2023-04-19T12:05:58;6.82;;;4.15;;
60076;SDS011;45950;45.208;20.374;2023-04-19T12:08:30;8.85;;;3.88;;
60076;SDS011;45950;45.208;20.374;2023-04-19T12:10:57;6.18;;;3.80;;
60076;SDS011;45950;45.208;20.374;2023-04-19T12:13:24;5.93;;;4.10;;
60076;SDS011;45950;45.208;20.374;2023-04-19T12:15:52;5.72;;;4.03;;
60076;SDS011;45950;45.208;20.374;2023-04-19T12:18:19;7.80;;;4.40;;
60076;SDS011;45950;45.208;20.374;2023-04-19T12:20:46;7.78;;;3.97;;
60076;SDS011;45950;45.208;20.374;2023-04-19T12:23:12;8.57;;;5.20;;
60076;SDS011;45950;45.208;20.374;2023-04-19T12:25:40;11.68;;;4.72;;
60076;SDS011;45950;45.208;20.374;2023-04-19T12:28:06;8.50;;;5.18;;
60076;SDS011;45950;45.208;20.374;2023-04-19T12:30:33;7.18;;;5.10;;
60076;SDS011;45950;45.208;20.374;2023-04-19T12:33:02;7.28;;;4.47;;
60076;SDS011;45950;45.208;20.374;2023-04-19T12:35:28;7.15;;;5.45;;
60076;SDS011;45950;45.208;20.374;2023-04-19T12:37:56;6.80;;;5.05;;
60076;SDS011;45950;45.208;20.374;2023-04-19T12:40:23;6.50;;;5.07;;
60076;SDS011;45950;45.208;20.374;2023-04-19T12:42:49;7.20;;;5.40;;
60076;SDS011;45950;45.208;20.374;2023-04-19T12:45:16;13.70;;;6.78;;
60076;SDS011;45950;45.208;20.374;2023-04-19T12:47:44;9.32;;;4.93;;
60076;SDS011;45950;45.208;20.374;2023-04-19T12:50:12;8.10;;;4.63;;
60076;SDS011;45950;45.208;20.374;2023-04-19T12:52:39;9.88;;;5.90;;
60076;SDS011;45950;45.208;20.374;2023-04-19T12:55:06;8.90;;;5.43;;
60076;SDS011;45950;45.208;20.374;2023-04-19T12:57:33;5.90;;;4.57;;
60076;SDS011;45950;45.208;20.374;2023-04-19T12:59:59;9.35;;;6.28;;
60076;SDS011;45950;45.208;20.374;2023-04-19T13:02:26;8.77;;;5.90;;
60076;SDS011;45950;45.208;20.374;2023-04-19T13:04:52;7.50;;;5.43;;
60076;SDS011;45950;45.208;20.374;2023-04-19T13:07:20;6.38;;;4.95;;
60076;SDS011;45950;45.208;20.374;2023-04-19T13:09:47;7.45;;;5.35;;
60076;SDS011;45950;45.208;20.374;2023-04-19T13:12:14;8.25;;;5.43;;
60076;SDS011;45950;45.208;20.374;2023-04-19T13:14:40;9.13;;;4.65;;
60076;SDS011;45950;45.208;20.374;2023-04-19T13:17:07;8.48;;;6.40;;
60076;SDS011;45950;45.208;20.374;2023-04-19T13:19:34;9.93;;;6.43;;
60076;SDS011;45950;45.208;20.374;2023-04-19T13:22:00;7.95;;;6.18;;
60076;SDS011;45950;45.208;20.374;2023-04-19T13:24:28;8.40;;;5.78;;
60076;SDS011;45950;45.208;20.374;2023-04-19T13:27:08;11.85;;;5.65;;
60076;SDS011;45950;45.208;20.374;2023-04-19T13:29:34;8.75;;;6.07;;
60076;SDS011;45950;45.208;20.374;2023-04-19T13:32:01;7.03;;;5.63;;
60076;SDS011;45950;45.208;20.374;2023-04-19T13:34:31;11.68;;;7.05;;
60076;SDS011;45950;45.208;20.374;2023-04-19T13:36:57;10.85;;;6.22;;
60076;SDS011;45950;45.208;20.374;2023-04-19T13:39:24;7.85;;;6.15;;
60076;SDS011;45950;45.208;20.374;2023-04-19T13:41:52;8.48;;;5.15;;
60076;SDS011;45950;45.208;20.374;2023-04-19T13:44:18;14.50;;;8.40;;
60076;SDS011;45950;45.208;20.374;2023-04-19T13:46:45;9.15;;;6.50;;
60076;SDS011;45950;45.208;20.374;2023-04-19T13:49:11;8.75;;;6.15;;
60076;SDS011;45950;45.208;20.374;2023-04-19T13:51:38;12.23;;;6.55;;
60076;SDS011;45950;45.208;20.374;2023-04-19T13:54:05;10.20;;;6.97;;
60076;SDS011;45950;45.208;20.374;2023-04-19T13:56:31;8.00;;;6.13;;
60076;SDS011;45950;45.208;20.374;2023-04-19T13:58:59;21.95;;;7.70;;
60076;SDS011;45950;45.208;20.374;2023-04-19T14:01:26;10.98;;;7.78;;
60076;SDS011;45950;45.208;20.374;2023-04-19T14:03:53;10.43;;;6.55;;
60076;SDS011;45950;45.208;20.374;2023-04-19T14:06:19;17.23;;;10.35;;
60076;SDS011;45950;45.208;20.374;2023-04-19T14:08:46;9.70;;;7.72;;
60076;SDS011;45950;45.208;20.374;2023-04-19T14:11:12;8.40;;;5.93;;
60076;SDS011;45950;45.208;20.374;2023-04-19T14:13:39;11.65;;;6.50;;
60076;SDS011;45950;45.208;20.374;2023-04-19T14:16:07;13.73;;;9.27;;
60076;SDS011;45950;45.208;20.374;2023-04-19T14:18:34;8.40;;;6.30;;
60076;SDS011;45950;45.208;20.374;2023-04-19T14:21:00;9.80;;;5.97;;
60076;SDS011;45950;45.208;20.374;2023-04-19T14:23:27;8.52;;;6.53;;
60076;SDS011;45950;45.208;20.374;2023-04-19T14:25:53;9.20;;;5.93;;
60076;SDS011;45950;45.208;20.374;2023-04-19T14:28:20;9.80;;;7.07;;
60076;SDS011;45950;45.208;20.374;2023-04-19T14:30:46;9.60;;;7.20;;
60076;SDS011;45950;45.208;20.374;2023-04-19T14:33:14;8.90;;;6.25;;
60076;SDS011;45950;45.208;20.374;2023-04-19T14:35:41;8.57;;;5.97;;